sensor_id;sensor_type;location;lat;lon;timestamp;P1;durP1;ratioP1;P2;durP2;ratioP2
13445;SDS011;6795;51.232;3.764;2023-12-22T00:00:58;11.43;;;1.63;;
13445;SDS011;6795;51.232;3.764;2023-12-22T00:03:27;9.93;;;0.80;;
13445;SDS011;6795;51.232;3.764;2023-12-22T00:05:57;8.15;;;0.80;;
13445;SDS011;6795;51.232;3.764;2023-12-22T00:08:25;14.05;;;1.45;;
13445;SDS011;6795;51.232;3.764;2023-12-22T00:10:54;16.10;;;1.67;;
13445;SDS011;6795;51.232;3.764;2023-12-22T00:13:23;10.88;;;1.48;;
13445;SDS011;6795;51.232;3.764;2023-12-22T00:15:52;10.52;;;2.28;;
13445;SDS011;6795;51.232;3.764;2023-12-22T00:18:20;17.98;;;2.80;;
13445;SDS011;6795;51.232;3.764;2023-12-22T00:20:49;14.13;;;2.05;;
13445;SDS011;6795;51.232;3.764;2023-12-22T00:23:19;19.58;;;2.35;;
13445;SDS011;6795;51.232;3.764;2023-12-22T00:25:48;20.88;;;2.53;;
13445;SDS011;6795;51.232;3.764;2023-12-22T00:28:16;16.42;;;1.98;;
13445;SDS011;6795;51.232;3.764;2023-12-22T00:30:45;19.30;;;4.25;;
13445;SDS011;6795;51.232;3.764;2023-12-22T00:33:13;21.23;;;2.53;;
13445;SDS011;6795;51.232;3.764;2023-12-22T00:35:42;18.10;;;3.72;;
13445;SDS011;6795;51.232;3.764;2023-12-22T00:38:11;15.95;;;1.95;;
13445;SDS011;6795;51.232;3.764;2023-12-22T00:40:44;12.38;;;1.70;;
13445;SDS011;6795;51.232;3.764;2023-12-22T00:43:12;16.88;;;2.40;;
13445;SDS011;6795;51.232;3.764;2023-12-22T00:45:41;20.38;;;2.42;;
13445;SDS011;6795;51.232;3.764;2023-12-22T00:48:10;17.88;;;2.10;;
13445;SDS011;6795;51.232;3.764;2023-12-22T00:50:39;16.77;;;1.67;;
13445;SDS011;6795;51.232;3.764;2023-12-22T00:53:07;19.42;;;2.47;;
13445;SDS011;6795;51.232;3.764;2023-12-22T00:55:36;10.25;;;1.55;;
13445;SDS011;6795;51.232;3.764;2023-12-22T00:58:06;20.52;;;2.20;;
13445;SDS011;6795;51.232;3.764;2023-12-22T01:00:35;15.68;;;3.08;;
13445;SDS011;6795;51.232;3.764;2023-12-22T01:03:04;14.13;;;2.03;;
13445;SDS011;6795;51.232;3.764;2023-12-22T01:05:33;13.50;;;1.42;;
13445;SDS011;6795;51.232;3.764;2023-12-22T01:08:02;17.30;;;1.60;;
13445;SDS011;6795;51.232;3.764;2023-12-22T01:10:30;15.77;;;1.73;;
13445;SDS011;6795;51.232;3.764;2023-12-22T01:12:59;13.13;;;1.70;;
13445;SDS011;6795;51.232;3.764;2023-12-22T01:15:29;17.45;;;1.58;;
13445;SDS011;6795;51.232;3.764;2023-12-22T01:17:58;21.73;;;3.25;;
13445;SDS011;6795;51.232;3.764;2023-12-22T01:20:27;11.40;;;1.92;;
13445;SDS011;6795;51.232;3.764;2023-12-22T01:22:56;15.85;;;1.90;;
13445;SDS011;6795;51.232;3.764;2023-12-22T01:25:25;21.48;;;2.83;;
13445;SDS011;6795;51.232;3.764;2023-12-22T01:27:53;15.80;;;2.28;;
13445;SDS011;6795;51.232;3.764;2023-12-22T01:30:22;18.35;;;1.58;;
13445;SDS011;6795;51.232;3.764;2023-12-22T01:32:52;21.90;;;2.47;;
13445;SDS011;6795;51.232;3.764;2023-12-22T01:35:21;19.17;;;2.22;;
13445;SDS011;6795;51.232;3.764;2023-12-22T01:37:50;14.00;;;1.85;;
13445;SDS011;6795;51.232;3.764;2023-12-22T01:40:18;17.10;;;2.15;;
13445;SDS011;6795;51.232;3.764;2023-12-22T01:42:47;14.75;;;2.00;;
13445;SDS011;6795;51.232;3.764;2023-12-22T01:45:16;14.80;;;1.58;;
13445;SDS011;6795;51.232;3.764;2023-12-22T01:47:45;16.77;;;1.50;;
13445;SDS011;6795;51.232;3.764;2023-12-22T01:50:16;16.52;;;1.98;;
13445;SDS011;6795;51.232;3.764;2023-12-22T01:52:46;15.68;;;1.73;;
13445;SDS011;6795;51.232;3.764;2023-12-22T01:55:15;12.02;;;1.63;;
13445;SDS011;6795;51.232;3.764;2023-12-22T01:57:44;15.30;;;0.85;;
13445;SDS011;6795;51.232;3.764;2023-12-22T02:00:14;12.10;;;1.17;;
13445;SDS011;6795;51.232;3.764;2023-12-22T02:02:43;11.05;;;1.45;;
13445;SDS011;6795;51.232;3.764;2023-12-22T02:05:12;9.55;;;1.02;;
13445;SDS011;6795;51.232;3.764;2023-12-22T02:07:42;13.75;;;1.80;;
13445;SDS011;6795;51.232;3.764;2023-12-22T02:10:11;8.95;;;1.05;;
13445;SDS011;6795;51.232;3.764;2023-12-22T02:12:40;13.35;;;2.67;;
13445;SDS011;6795;51.232;3.764;2023-12-22T02:15:09;10.35;;;2.38;;
13445;SDS011;6795;51.232;3.764;2023-12-22T02:17:39;15.57;;;1.67;;
13445;SDS011;6795;51.232;3.764;2023-12-22T02:20:09;13.25;;;1.65;;
13445;SDS011;6795;51.232;3.764;2023-12-22T02:22:39;8.30;;;2.22;;
13445;SDS011;6795;51.232;3.764;2023-12-22T02:25:08;12.13;;;1.40;;
13445;SDS011;6795;51.232;3.764;2023-12-22T02:27:38;13.65;;;1.85;;
13445;SDS011;6795;51.232;3.764;2023-12-22T02:30:09;17.45;;;2.90;;
13445;SDS011;6795;51.232;3.764;2023-12-22T02:32:41;9.73;;;1.33;;
13445;SDS011;6795;51.232;3.764;2023-12-22T02:35:11;14.68;;;1.95;;
13445;SDS011;6795;51.232;3.764;2023-12-22T02:37:44;23.88;;;1.98;;
13445;SDS011;6795;51.232;3.764;2023-12-22T02:40:14;16.20;;;2.70;;
13445;SDS011;6795;51.232;3.764;2023-12-22T02:42:43;19.10;;;2.60;;
13445;SDS011;6795;51.232;3.764;2023-12-22T02:45:13;16.23;;;2.03;;
13445;SDS011;6795;51.232;3.764;2023-12-22T02:47:41;15.80;;;2.10;;
13445;SDS011;6795;51.232;3.764;2023-12-22T02:50:11;14.35;;;1.77;;
13445;SDS011;6795;51.232;3.764;2023-12-22T02:52:40;20.35;;;2.55;;
13445;SDS011;6795;51.232;3.764;2023-12-22T02:55:10;20.67;;;2.60;;
13445;SDS011;6795;51.232;3.764;2023-12-22T02:57:39;18.23;;;2.58;;
13445;SDS011;6795;51.232;3.764;2023-12-22T03:00:08;23.17;;;2.47;;
13445;SDS011;6795;51.232;3.764;2023-12-22T03:02:36;26.55;;;3.25;;
13445;SDS011;6795;51.232;3.764;2023-12-22T03:05:05;15.68;;;2.53;;
13445;SDS011;6795;51.232;3.764;2023-12-22T03:07:34;24.73;;;2.85;;
13445;SDS011;6795;51.232;3.764;2023-12-22T03:10:03;24.27;;;3.45;;
13445;SDS011;6795;51.232;3.764;2023-12-22T03:12:33;23.65;;;3.20;;
13445;SDS011;6795;51.232;3.764;2023-12-22T03:15:02;24.27;;;3.40;;
13445;SDS011;6795;51.232;3.764;2023-12-22T03:17:30;18.42;;;2.55;;
13445;SDS011;6795;51.232;3.764;2023-12-22T03:19:59;17.83;;;2.60;;
13445;SDS011;6795;51.232;3.764;2023-12-22T03:22:28;14.23;;;1.73;;
13445;SDS011;6795;51.232;3.764;2023-12-22T03:24:57;14.43;;;1.65;;
13445;SDS011;6795;51.232;3.764;2023-12-22T03:27:25;25.13;;;2.97;;
13445;SDS011;6795;51.232;3.764;2023-12-22T03:29:55;17.88;;;3.35;;
13445;SDS011;6795;51.232;3.764;2023-12-22T03:32:24;28.80;;;2.72;;
13445;SDS011;6795;51.232;3.764;2023-12-22T03:34:52;24.65;;;2.85;;
13445;SDS011;6795;51.232;3.764;2023-12-22T03:37:21;21.30;;;2.65;;
13445;SDS011;6795;51.232;3.764;2023-12-22T03:39:50;18.67;;;2.83;;
13445;SDS011;6795;51.232;3.764;2023-12-22T03:42:18;13.80;;;1.85;;
13445;SDS011;6795;51.232;3.764;2023-12-22T03:44:47;22.45;;;2.42;;
13445;SDS011;6795;51.232;3.764;2023-12-22T03:47:20;19.00;;;2.88;;
13445;SDS011;6795;51.232;3.764;2023-12-22T03:49:49;28.02;;;2.75;;
13445;SDS011;6795;51.232;3.764;2023-12-22T03:52:17;30.60;;;4.45;;
13445;SDS011;6795;51.232;3.764;2023-12-22T03:54:46;25.90;;;3.58;;
13445;SDS011;6795;51.232;3.764;2023-12-22T03:57:15;26.70;;;3.03;;
13445;SDS011;6795;51.232;3.764;2023-12-22T03:59:44;28.23;;;3.55;;
13445;SDS011;6795;51.232;3.764;2023-12-22T04:02:12;28.15;;;3.55;;
13445;SDS011;6795;51.232;3.764;2023-12-22T04:04:42;28.00;;;3.78;;
13445;SDS011;6795;51.232;3.764;2023-12-22T04:07:11;20.95;;;2.67;;
13445;SDS011;6795;51.232;3.764;2023-12-22T04:09:39;25.15;;;3.40;;
13445;SDS011;6795;51.232;3.764;2023-12-22T04:12:08;30.90;;;4.60;;
13445;SDS011;6795;51.232;3.764;2023-12-22T04:14:36;31.25;;;3.45;;
13445;SDS011;6795;51.232;3.764;2023-12-22T04:17:05;28.80;;;4.28;;
13445;SDS011;6795;51.232;3.764;2023-12-22T04:19:34;26.13;;;3.38;;
13445;SDS011;6795;51.232;3.764;2023-12-22T04:22:06;23.50;;;3.80;;
13445;SDS011;6795;51.232;3.764;2023-12-22T04:24:34;25.73;;;3.58;;
13445;SDS011;6795;51.232;3.764;2023-12-22T04:27:03;29.50;;;4.70;;
13445;SDS011;6795;51.232;3.764;2023-12-22T04:29:32;27.60;;;3.47;;
13445;SDS011;6795;51.232;3.764;2023-12-22T04:34:58;26.85;;;3.75;;
13445;SDS011;6795;51.232;3.764;2023-12-22T04:37:28;29.08;;;4.38;;
13445;SDS011;6795;51.232;3.764;2023-12-22T04:39:57;23.40;;;2.35;;
13445;SDS011;6795;51.232;3.764;2023-12-22T04:42:25;25.90;;;5.57;;
13445;SDS011;6795;51.232;3.764;2023-12-22T04:44:54;24.00;;;3.17;;
13445;SDS011;6795;51.232;3.764;2023-12-22T04:47:23;17.60;;;3.53;;
13445;SDS011;6795;51.232;3.764;2023-12-22T04:49:52;29.88;;;3.47;;
13445;SDS011;6795;51.232;3.764;2023-12-22T04:52:21;28.52;;;4.18;;
13445;SDS011;6795;51.232;3.764;2023-12-22T04:54:51;31.77;;;3.47;;
13445;SDS011;6795;51.232;3.764;2023-12-22T04:57:22;25.42;;;4.18;;
13445;SDS011;6795;51.232;3.764;2023-12-22T04:59:51;32.97;;;3.70;;
13445;SDS011;6795;51.232;3.764;2023-12-22T05:02:19;27.45;;;3.85;;
13445;SDS011;6795;51.232;3.764;2023-12-22T05:04:48;25.58;;;4.43;;
13445;SDS011;6795;51.232;3.764;2023-12-22T05:07:17;30.40;;;4.35;;
13445;SDS011;6795;51.232;3.764;2023-12-22T05:09:48;22.85;;;2.67;;
13445;SDS011;6795;51.232;3.764;2023-12-22T05:12:19;20.02;;;3.90;;
13445;SDS011;6795;51.232;3.764;2023-12-22T05:14:48;28.00;;;4.13;;
13445;SDS011;6795;51.232;3.764;2023-12-22T05:17:17;18.85;;;2.95;;
13445;SDS011;6795;51.232;3.764;2023-12-22T05:19:45;21.77;;;3.85;;
13445;SDS011;6795;51.232;3.764;2023-12-22T05:22:14;24.83;;;3.20;;
13445;SDS011;6795;51.232;3.764;2023-12-22T05:24:43;23.92;;;2.67;;
13445;SDS011;6795;51.232;3.764;2023-12-22T05:27:11;23.17;;;3.38;;
13445;SDS011;6795;51.232;3.764;2023-12-22T05:29:42;15.55;;;2.15;;
13445;SDS011;6795;51.232;3.764;2023-12-22T05:32:10;20.85;;;2.85;;
13445;SDS011;6795;51.232;3.764;2023-12-22T05:34:39;17.95;;;2.03;;
13445;SDS011;6795;51.232;3.764;2023-12-22T05:37:08;14.35;;;2.42;;
13445;SDS011;6795;51.232;3.764;2023-12-22T05:39:36;18.88;;;2.40;;
13445;SDS011;6795;51.232;3.764;2023-12-22T05:42:05;21.85;;;2.55;;
13445;SDS011;6795;51.232;3.764;2023-12-22T05:44:34;15.15;;;2.00;;
13445;SDS011;6795;51.232;3.764;2023-12-22T05:47:06;18.13;;;2.72;;
13445;SDS011;6795;51.232;3.764;2023-12-22T05:49:39;13.63;;;2.50;;
13445;SDS011;6795;51.232;3.764;2023-12-22T05:52:08;16.48;;;2.58;;
13445;SDS011;6795;51.232;3.764;2023-12-22T05:54:37;20.52;;;2.47;;
13445;SDS011;6795;51.232;3.764;2023-12-22T05:57:06;12.73;;;1.75;;
13445;SDS011;6795;51.232;3.764;2023-12-22T05:59:34;11.85;;;2.03;;
13445;SDS011;6795;51.232;3.764;2023-12-22T06:02:03;13.98;;;1.67;;
13445;SDS011;6795;51.232;3.764;2023-12-22T06:04:33;13.80;;;1.90;;
13445;SDS011;6795;51.232;3.764;2023-12-22T06:07:02;11.77;;;1.33;;
13445;SDS011;6795;51.232;3.764;2023-12-22T06:09:31;13.00;;;1.30;;
13445;SDS011;6795;51.232;3.764;2023-12-22T06:12:00;11.10;;;1.80;;
13445;SDS011;6795;51.232;3.764;2023-12-22T06:14:29;12.25;;;1.48;;
13445;SDS011;6795;51.232;3.764;2023-12-22T06:16:58;11.63;;;1.63;;
13445;SDS011;6795;51.232;3.764;2023-12-22T06:19:27;11.35;;;1.20;;
13445;SDS011;6795;51.232;3.764;2023-12-22T06:21:58;8.75;;;0.90;;
13445;SDS011;6795;51.232;3.764;2023-12-22T06:24:27;11.52;;;1.70;;
13445;SDS011;6795;51.232;3.764;2023-12-22T06:26:56;10.50;;;0.93;;
13445;SDS011;6795;51.232;3.764;2023-12-22T06:29:27;15.93;;;1.60;;
13445;SDS011;6795;51.232;3.764;2023-12-22T06:31:57;14.70;;;1.15;;
13445;SDS011;6795;51.232;3.764;2023-12-22T06:34:26;10.38;;;1.42;;
13445;SDS011;6795;51.232;3.764;2023-12-22T06:36:54;9.05;;;0.85;;
13445;SDS011;6795;51.232;3.764;2023-12-22T06:39:24;9.85;;;0.77;;
13445;SDS011;6795;51.232;3.764;2023-12-22T06:41:53;7.72;;;1.13;;
13445;SDS011;6795;51.232;3.764;2023-12-22T06:44:22;8.65;;;0.82;;
13445;SDS011;6795;51.232;3.764;2023-12-22T06:46:52;9.70;;;1.10;;
13445;SDS011;6795;51.232;3.764;2023-12-22T06:49:23;14.90;;;1.75;;
13445;SDS011;6795;51.232;3.764;2023-12-22T06:51:52;18.90;;;1.55;;
13445;SDS011;6795;51.232;3.764;2023-12-22T06:54:21;17.50;;;1.27;;
13445;SDS011;6795;51.232;3.764;2023-12-22T06:56:51;13.25;;;1.33;;
13445;SDS011;6795;51.232;3.764;2023-12-22T06:59:20;18.67;;;1.65;;
13445;SDS011;6795;51.232;3.764;2023-12-22T07:01:50;11.52;;;1.40;;
13445;SDS011;6795;51.232;3.764;2023-12-22T07:07:34;8.80;;;0.95;;
13445;SDS011;6795;51.232;3.764;2023-12-22T07:10:03;9.38;;;0.90;;
13445;SDS011;6795;51.232;3.764;2023-12-22T07:12:33;9.55;;;0.93;;
13445;SDS011;6795;51.232;3.764;2023-12-22T07:15:02;11.52;;;0.77;;
13445;SDS011;6795;51.232;3.764;2023-12-22T07:17:31;10.75;;;2.28;;
13445;SDS011;6795;51.232;3.764;2023-12-22T07:19:59;10.18;;;1.00;;
13445;SDS011;6795;51.232;3.764;2023-12-22T07:22:29;9.38;;;1.00;;
13445;SDS011;6795;51.232;3.764;2023-12-22T07:24:58;11.63;;;1.00;;
13445;SDS011;6795;51.232;3.764;2023-12-22T07:27:27;11.85;;;1.10;;
13445;SDS011;6795;51.232;3.764;2023-12-22T07:29:56;7.68;;;0.93;;
13445;SDS011;6795;51.232;3.764;2023-12-22T07:32:25;6.30;;;0.77;;
13445;SDS011;6795;51.232;3.764;2023-12-22T07:34:55;8.57;;;0.85;;
13445;SDS011;6795;51.232;3.764;2023-12-22T07:37:26;5.40;;;0.50;;
13445;SDS011;6795;51.232;3.764;2023-12-22T07:39:55;5.95;;;0.60;;
13445;SDS011;6795;51.232;3.764;2023-12-22T07:42:24;3.70;;;0.40;;
13445;SDS011;6795;51.232;3.764;2023-12-22T07:44:54;7.25;;;0.50;;
13445;SDS011;6795;51.232;3.764;2023-12-22T07:47:24;6.63;;;0.75;;
13445;SDS011;6795;51.232;3.764;2023-12-22T07:49:53;4.78;;;0.63;;
13445;SDS011;6795;51.232;3.764;2023-12-22T07:52:22;3.63;;;0.40;;
13445;SDS011;6795;51.232;3.764;2023-12-22T07:54:50;4.00;;;0.60;;
13445;SDS011;6795;51.232;3.764;2023-12-22T07:57:19;3.47;;;0.88;;
13445;SDS011;6795;51.232;3.764;2023-12-22T07:59:48;5.18;;;1.10;;
13445;SDS011;6795;51.232;3.764;2023-12-22T08:02:16;5.00;;;0.85;;
13445;SDS011;6795;51.232;3.764;2023-12-22T08:04:46;5.45;;;1.10;;
13445;SDS011;6795;51.232;3.764;2023-12-22T08:07:15;8.65;;;1.10;;
13445;SDS011;6795;51.232;3.764;2023-12-22T08:09:43;4.47;;;0.77;;
13445;SDS011;6795;51.232;3.764;2023-12-22T08:12:12;4.45;;;0.68;;
13445;SDS011;6795;51.232;3.764;2023-12-22T08:14:41;4.13;;;0.50;;
13445;SDS011;6795;51.232;3.764;2023-12-22T08:17:10;4.63;;;0.90;;
13445;SDS011;6795;51.232;3.764;2023-12-22T08:19:39;4.63;;;1.13;;
13445;SDS011;6795;51.232;3.764;2023-12-22T08:22:15;7.60;;;1.30;;
13445;SDS011;6795;51.232;3.764;2023-12-22T08:24:44;6.65;;;0.68;;
13445;SDS011;6795;51.232;3.764;2023-12-22T08:27:14;5.20;;;0.70;;
13445;SDS011;6795;51.232;3.764;2023-12-22T08:29:43;9.60;;;1.05;;
13445;SDS011;6795;51.232;3.764;2023-12-22T08:32:11;5.47;;;0.60;;
13445;SDS011;6795;51.232;3.764;2023-12-22T08:34:40;9.30;;;0.47;;
13445;SDS011;6795;51.232;3.764;2023-12-22T08:37:09;7.03;;;1.38;;
13445;SDS011;6795;51.232;3.764;2023-12-22T08:39:39;5.68;;;0.70;;
13445;SDS011;6795;51.232;3.764;2023-12-22T08:42:07;8.55;;;0.60;;
13445;SDS011;6795;51.232;3.764;2023-12-22T08:44:36;4.63;;;0.40;;
13445;SDS011;6795;51.232;3.764;2023-12-22T08:47:05;7.07;;;0.80;;
13445;SDS011;6795;51.232;3.764;2023-12-22T08:49:33;9.27;;;0.65;;
13445;SDS011;6795;51.232;3.764;2023-12-22T08:52:02;15.10;;;1.25;;
13445;SDS011;6795;51.232;3.764;2023-12-22T08:54:31;7.13;;;0.73;;
13445;SDS011;6795;51.232;3.764;2023-12-22T08:57:02;4.75;;;0.60;;
13445;SDS011;6795;51.232;3.764;2023-12-22T08:59:30;3.65;;;0.43;;
13445;SDS011;6795;51.232;3.764;2023-12-22T09:01:59;12.00;;;1.80;;
13445;SDS011;6795;51.232;3.764;2023-12-22T09:04:28;6.75;;;0.52;;
13445;SDS011;6795;51.232;3.764;2023-12-22T09:06:57;6.53;;;0.50;;
13445;SDS011;6795;51.232;3.764;2023-12-22T09:09:26;4.32;;;0.30;;
13445;SDS011;6795;51.232;3.764;2023-12-22T09:11:54;5.70;;;0.70;;
13445;SDS011;6795;51.232;3.764;2023-12-22T09:14:24;5.95;;;0.55;;
13445;SDS011;6795;51.232;3.764;2023-12-22T09:16:53;8.02;;;1.42;;
13445;SDS011;6795;51.232;3.764;2023-12-22T09:19:23;4.43;;;0.40;;
13445;SDS011;6795;51.232;3.764;2023-12-22T09:21:53;4.97;;;0.40;;
13445;SDS011;6795;51.232;3.764;2023-12-22T09:24:21;7.32;;;0.40;;
13445;SDS011;6795;51.232;3.764;2023-12-22T09:26:50;4.43;;;0.60;;
13445;SDS011;6795;51.232;3.764;2023-12-22T09:29:18;5.00;;;0.70;;
13445;SDS011;6795;51.232;3.764;2023-12-22T09:31:49;8.63;;;1.05;;
13445;SDS011;6795;51.232;3.764;2023-12-22T09:34:18;7.07;;;0.30;;
13445;SDS011;6795;51.232;3.764;2023-12-22T09:36:46;2.55;;;0.30;;
13445;SDS011;6795;51.232;3.764;2023-12-22T09:39:15;5.28;;;0.30;;
13445;SDS011;6795;51.232;3.764;2023-12-22T09:41:44;4.07;;;0.40;;
13445;SDS011;6795;51.232;3.764;2023-12-22T09:44:16;6.60;;;0.63;;
13445;SDS011;6795;51.232;3.764;2023-12-22T09:46:47;8.32;;;0.55;;
13445;SDS011;6795;51.232;3.764;2023-12-22T09:49:18;4.45;;;0.38;;
13445;SDS011;6795;51.232;3.764;2023-12-22T09:51:47;8.80;;;0.75;;
13445;SDS011;6795;51.232;3.764;2023-12-22T09:54:17;7.82;;;0.60;;
13445;SDS011;6795;51.232;3.764;2023-12-22T09:56:46;7.82;;;0.55;;
13445;SDS011;6795;51.232;3.764;2023-12-22T09:59:15;4.43;;;0.40;;
13445;SDS011;6795;51.232;3.764;2023-12-22T10:01:45;9.32;;;0.85;;
13445;SDS011;6795;51.232;3.764;2023-12-22T10:04:18;5.07;;;0.50;;
13445;SDS011;6795;51.232;3.764;2023-12-22T10:06:47;4.05;;;0.50;;
13445;SDS011;6795;51.232;3.764;2023-12-22T10:09:16;5.88;;;1.40;;
13445;SDS011;6795;51.232;3.764;2023-12-22T10:11:45;8.38;;;0.30;;
13445;SDS011;6795;51.232;3.764;2023-12-22T10:14:15;3.22;;;0.40;;
13445;SDS011;6795;51.232;3.764;2023-12-22T10:16:48;6.25;;;0.90;;
13445;SDS011;6795;51.232;3.764;2023-12-22T10:19:18;5.05;;;0.95;;
13445;SDS011;6795;51.232;3.764;2023-12-22T10:21:48;5.15;;;0.30;;
13445;SDS011;6795;51.232;3.764;2023-12-22T10:24:36;6.20;;;0.30;;
13445;SDS011;6795;51.232;3.764;2023-12-22T10:27:05;5.35;;;0.55;;
13445;SDS011;6795;51.232;3.764;2023-12-22T10:29:34;5.25;;;0.40;;
13445;SDS011;6795;51.232;3.764;2023-12-22T10:32:03;5.25;;;0.40;;
13445;SDS011;6795;51.232;3.764;2023-12-22T10:34:35;5.70;;;0.40;;
13445;SDS011;6795;51.232;3.764;2023-12-22T10:37:04;8.00;;;0.95;;
13445;SDS011;6795;51.232;3.764;2023-12-22T10:39:33;3.65;;;0.30;;
13445;SDS011;6795;51.232;3.764;2023-12-22T10:42:04;2.30;;;0.30;;
13445;SDS011;6795;51.232;3.764;2023-12-22T10:44:33;6.75;;;1.63;;
13445;SDS011;6795;51.232;3.764;2023-12-22T10:47:01;5.53;;;0.50;;
13445;SDS011;6795;51.232;3.764;2023-12-22T10:49:30;5.53;;;0.30;;
13445;SDS011;6795;51.232;3.764;2023-12-22T10:52:02;2.00;;;0.30;;
13445;SDS011;6795;51.232;3.764;2023-12-22T10:54:31;6.75;;;0.52;;
13445;SDS011;6795;51.232;3.764;2023-12-22T10:57:00;3.97;;;0.38;;
13445;SDS011;6795;51.232;3.764;2023-12-22T10:59:29;5.40;;;0.20;;
13445;SDS011;6795;51.232;3.764;2023-12-22T11:02:01;6.55;;;0.52;;
13445;SDS011;6795;51.232;3.764;2023-12-22T11:04:30;5.20;;;0.30;;
13445;SDS011;6795;51.232;3.764;2023-12-22T11:07:00;9.43;;;0.88;;
13445;SDS011;6795;51.232;3.764;2023-12-22T11:09:36;4.72;;;0.30;;
13445;SDS011;6795;51.232;3.764;2023-12-22T11:12:06;4.55;;;0.30;;
13445;SDS011;6795;51.232;3.764;2023-12-22T11:14:35;1.63;;;0.20;;
13445;SDS011;6795;51.232;3.764;2023-12-22T11:17:04;5.45;;;0.85;;
13445;SDS011;6795;51.232;3.764;2023-12-22T11:19:33;4.53;;;0.40;;
13445;SDS011;6795;51.232;3.764;2023-12-22T11:22:03;4.38;;;0.68;;
13445;SDS011;6795;51.232;3.764;2023-12-22T11:24:32;5.78;;;1.02;;
13445;SDS011;6795;51.232;3.764;2023-12-22T11:27:03;3.10;;;0.43;;
13445;SDS011;6795;51.232;3.764;2023-12-22T11:29:32;3.92;;;0.30;;
13445;SDS011;6795;51.232;3.764;2023-12-22T11:32:02;5.00;;;0.40;;
13445;SDS011;6795;51.232;3.764;2023-12-22T11:34:32;5.82;;;0.40;;
13445;SDS011;6795;51.232;3.764;2023-12-22T11:37:02;4.47;;;0.50;;
13445;SDS011;6795;51.232;3.764;2023-12-22T11:39:32;4.97;;;0.40;;
13445;SDS011;6795;51.232;3.764;2023-12-22T11:42:00;3.92;;;0.52;;
13445;SDS011;6795;51.232;3.764;2023-12-22T11:44:32;3.97;;;0.30;;
13445;SDS011;6795;51.232;3.764;2023-12-22T11:47:05;4.82;;;0.40;;
13445;SDS011;6795;51.232;3.764;2023-12-22T11:49:35;5.18;;;1.08;;
13445;SDS011;6795;51.232;3.764;2023-12-22T11:52:10;3.55;;;0.40;;
13445;SDS011;6795;51.232;3.764;2023-12-22T11:54:45;5.43;;;0.30;;
13445;SDS011;6795;51.232;3.764;2023-12-22T11:57:34;7.55;;;1.13;;
13445;SDS011;6795;51.232;3.764;2023-12-22T12:00:07;7.53;;;0.47;;
13445;SDS011;6795;51.232;3.764;2023-12-22T12:02:37;5.93;;;0.50;;
13445;SDS011;6795;51.232;3.764;2023-12-22T12:05:07;4.25;;;0.55;;
13445;SDS011;6795;51.232;3.764;2023-12-22T12:07:37;6.38;;;1.08;;
13445;SDS011;6795;51.232;3.764;2023-12-22T12:10:07;3.15;;;0.40;;
13445;SDS011;6795;51.232;3.764;2023-12-22T12:12:36;4.28;;;0.43;;
13445;SDS011;6795;51.232;3.764;2023-12-22T12:15:12;7.20;;;0.38;;
13445;SDS011;6795;51.232;3.764;2023-12-22T12:17:41;5.47;;;0.38;;
13445;SDS011;6795;51.232;3.764;2023-12-22T12:20:10;6.60;;;0.70;;
13445;SDS011;6795;51.232;3.764;2023-12-22T12:22:42;9.25;;;0.50;;
13445;SDS011;6795;51.232;3.764;2023-12-22T12:25:11;7.35;;;0.50;;
13445;SDS011;6795;51.232;3.764;2023-12-22T12:28:00;4.82;;;0.40;;
13445;SDS011;6795;51.232;3.764;2023-12-22T12:30:30;7.00;;;1.85;;
13445;SDS011;6795;51.232;3.764;2023-12-22T12:33:05;4.80;;;0.63;;
13445;SDS011;6795;51.232;3.764;2023-12-22T12:35:35;6.85;;;0.50;;
13445;SDS011;6795;51.232;3.764;2023-12-22T12:38:09;5.57;;;0.40;;
13445;SDS011;6795;51.232;3.764;2023-12-22T12:40:39;4.05;;;0.50;;
13445;SDS011;6795;51.232;3.764;2023-12-22T12:43:08;4.45;;;0.55;;
13445;SDS011;6795;51.232;3.764;2023-12-22T12:45:38;5.85;;;0.50;;
13445;SDS011;6795;51.232;3.764;2023-12-22T12:48:07;4.28;;;1.15;;
13445;SDS011;6795;51.232;3.764;2023-12-22T12:50:36;4.35;;;0.55;;
13445;SDS011;6795;51.232;3.764;2023-12-22T12:53:05;4.45;;;0.68;;
13445;SDS011;6795;51.232;3.764;2023-12-22T12:55:34;10.35;;;0.50;;
13445;SDS011;6795;51.232;3.764;2023-12-22T12:58:03;5.00;;;0.52;;
13445;SDS011;6795;51.232;3.764;2023-12-22T13:00:33;4.07;;;0.45;;
13445;SDS011;6795;51.232;3.764;2023-12-22T13:03:04;5.65;;;0.43;;
13445;SDS011;6795;51.232;3.764;2023-12-22T13:05:34;6.63;;;0.55;;
13445;SDS011;6795;51.232;3.764;2023-12-22T13:08:08;5.15;;;0.52;;
13445;SDS011;6795;51.232;3.764;2023-12-22T13:10:37;6.15;;;0.50;;
13445;SDS011;6795;51.232;3.764;2023-12-22T13:13:06;5.85;;;0.60;;
13445;SDS011;6795;51.232;3.764;2023-12-22T13:15:35;6.78;;;1.08;;
13445;SDS011;6795;51.232;3.764;2023-12-22T13:18:05;6.43;;;0.80;;
13445;SDS011;6795;51.232;3.764;2023-12-22T13:20:33;4.90;;;0.50;;
13445;SDS011;6795;51.232;3.764;2023-12-22T13:23:02;4.90;;;0.40;;
13445;SDS011;6795;51.232;3.764;2023-12-22T13:25:37;10.13;;;1.95;;
13445;SDS011;6795;51.232;3.764;2023-12-22T13:28:06;6.43;;;0.60;;
13445;SDS011;6795;51.232;3.764;2023-12-22T13:30:38;5.00;;;0.50;;
13445;SDS011;6795;51.232;3.764;2023-12-22T13:33:10;2.80;;;0.47;;
13445;SDS011;6795;51.232;3.764;2023-12-22T13:35:38;5.60;;;0.40;;
13445;SDS011;6795;51.232;3.764;2023-12-22T13:38:09;3.85;;;0.45;;
13445;SDS011;6795;51.232;3.764;2023-12-22T13:40:38;4.07;;;0.32;;
13445;SDS011;6795;51.232;3.764;2023-12-22T13:43:07;1.90;;;0.40;;
13445;SDS011;6795;51.232;3.764;2023-12-22T13:45:36;3.33;;;1.35;;
13445;SDS011;6795;51.232;3.764;2023-12-22T13:48:05;9.00;;;0.73;;
13445;SDS011;6795;51.232;3.764;2023-12-22T13:50:35;6.78;;;0.80;;
13445;SDS011;6795;51.232;3.764;2023-12-22T13:53:07;5.97;;;0.35;;
13445;SDS011;6795;51.232;3.764;2023-12-22T13:55:36;5.88;;;0.77;;
13445;SDS011;6795;51.232;3.764;2023-12-22T13:58:06;4.88;;;0.43;;
13445;SDS011;6795;51.232;3.764;2023-12-22T14:00:39;4.85;;;0.43;;
13445;SDS011;6795;51.232;3.764;2023-12-22T14:03:09;6.85;;;0.47;;
13445;SDS011;6795;51.232;3.764;2023-12-22T14:05:41;6.63;;;0.68;;
13445;SDS011;6795;51.232;3.764;2023-12-22T14:08:10;7.43;;;0.82;;
13445;SDS011;6795;51.232;3.764;2023-12-22T14:10:44;7.10;;;0.63;;
13445;SDS011;6795;51.232;3.764;2023-12-22T14:13:13;9.68;;;1.65;;
13445;SDS011;6795;51.232;3.764;2023-12-22T14:15:41;9.25;;;0.82;;
13445;SDS011;6795;51.232;3.764;2023-12-22T14:18:11;3.05;;;0.30;;
13445;SDS011;6795;51.232;3.764;2023-12-22T14:20:41;7.65;;;0.50;;
13445;SDS011;6795;51.232;3.764;2023-12-22T14:23:12;3.53;;;0.40;;
13445;SDS011;6795;51.232;3.764;2023-12-22T14:25:44;6.60;;;0.77;;
13445;SDS011;6795;51.232;3.764;2023-12-22T14:28:15;7.30;;;0.50;;
13445;SDS011;6795;51.232;3.764;2023-12-22T14:30:44;3.28;;;0.50;;
13445;SDS011;6795;51.232;3.764;2023-12-22T14:33:15;5.18;;;0.50;;
13445;SDS011;6795;51.232;3.764;2023-12-22T14:35:46;8.13;;;0.90;;
13445;SDS011;6795;51.232;3.764;2023-12-22T14:38:14;6.13;;;0.70;;
13445;SDS011;6795;51.232;3.764;2023-12-22T14:40:43;4.60;;;0.32;;
13445;SDS011;6795;51.232;3.764;2023-12-22T14:43:12;10.63;;;0.68;;
13445;SDS011;6795;51.232;3.764;2023-12-22T14:45:41;7.40;;;0.55;;
13445;SDS011;6795;51.232;3.764;2023-12-22T14:48:10;8.80;;;0.52;;
13445;SDS011;6795;51.232;3.764;2023-12-22T14:50:39;6.85;;;0.45;;
13445;SDS011;6795;51.232;3.764;2023-12-22T14:53:09;6.68;;;0.40;;
13445;SDS011;6795;51.232;3.764;2023-12-22T14:55:39;5.63;;;0.88;;
13445;SDS011;6795;51.232;3.764;2023-12-22T14:58:08;7.65;;;0.88;;
13445;SDS011;6795;51.232;3.764;2023-12-22T15:00:37;5.82;;;0.93;;
13445;SDS011;6795;51.232;3.764;2023-12-22T15:03:05;3.80;;;0.77;;
13445;SDS011;6795;51.232;3.764;2023-12-22T15:05:34;7.78;;;0.73;;
13445;SDS011;6795;51.232;3.764;2023-12-22T15:08:04;6.97;;;0.70;;
13445;SDS011;6795;51.232;3.764;2023-12-22T15:10:35;9.20;;;0.40;;
13445;SDS011;6795;51.232;3.764;2023-12-22T15:13:04;5.95;;;0.40;;
13445;SDS011;6795;51.232;3.764;2023-12-22T15:15:33;7.13;;;0.47;;